createdAt,value
2018-08-30T00:00:35.118Z,8.23
2018-08-30T00:03:03.795Z,7.65
2018-08-30T00:05:32.456Z,8.25
2018-08-30T00:08:01.054Z,7.72
2018-08-30T00:10:29.783Z,8.80
2018-08-30T00:12:59.499Z,8.28
2018-08-30T00:15:28.476Z,8.23
2018-08-30T00:17:57.218Z,8.05
2018-08-30T00:20:39.505Z,8.10
2018-08-30T00:23:08.642Z,7.83
2018-08-30T00:25:37.371Z,8.05
2018-08-30T00:28:06.107Z,9.30
2018-08-30T00:30:48.327Z,9.23
2018-08-30T00:33:17.142Z,8.93
2018-08-30T00:35:46.419Z,9.53
2018-08-30T00:38:15.177Z,9.60
2018-08-30T00:40:44.074Z,8.70
2018-08-30T00:43:12.805Z,9.80
2018-08-30T00:45:41.207Z,9.30
2018-08-30T00:48:09.925Z,9.45
2018-08-30T00:50:38.504Z,9.20
2018-08-30T00:53:06.905Z,9.57
2018-08-30T00:55:35.436Z,9.13
2018-08-30T00:58:03.939Z,10.30
2018-08-30T01:03:34.610Z,10.17
2018-08-30T01:06:03.210Z,10.15
2018-08-30T01:08:32.443Z,10.45
2018-08-30T01:11:19.539Z,10.45
2018-08-30T01:13:48.850Z,10.95
2018-08-30T01:16:17.277Z,10.73
2018-08-30T01:18:45.799Z,10.70
2018-08-30T01:21:14.276Z,10.35
2018-08-30T01:23:43.195Z,10.60
2018-08-30T01:26:13.289Z,11.20
2018-08-30T01:28:41.690Z,10.68
2018-08-30T01:31:10.148Z,11.00
2018-08-30T01:33:38.734Z,10.75
2018-08-30T01:36:08.041Z,10.87
2018-08-30T01:38:36.937Z,11.03
2018-08-30T01:43:58.216Z,11.60
2018-08-30T01:46:26.811Z,10.90
2018-08-30T01:51:57.905Z,11.37
2018-08-30T01:54:26.521Z,11.48
2018-08-30T01:56:55.112Z,11.50
2018-08-30T01:59:46.252Z,11.43
2018-08-30T02:02:14.762Z,11.25
2018-08-30T02:04:43.376Z,11.23
2018-08-30T02:07:12.029Z,11.55
2018-08-30T02:09:40.539Z,12.25
2018-08-30T02:12:09.193Z,11.93
2018-08-30T02:14:37.912Z,12.00
2018-08-30T02:17:06.769Z,12.30
2018-08-30T02:19:57.968Z,12.30
2018-08-30T02:22:26.891Z,11.60
2018-08-30T02:24:55.371Z,12.28
2018-08-30T02:27:24.009Z,12.13
2018-08-30T02:29:52.555Z,11.95
2018-08-30T02:32:21.135Z,12.50
2018-08-30T02:34:50.582Z,12.20
2018-08-30T02:37:19.099Z,12.13
2018-08-30T02:39:47.641Z,11.80
2018-08-30T02:42:16.059Z,12.05
2018-08-30T02:44:44.809Z,12.80
2018-08-30T02:47:13.395Z,11.97
2018-08-30T02:49:41.983Z,12.27
2018-08-30T02:52:09.499Z,12.07
2018-08-30T02:54:38.131Z,11.83
2018-08-30T02:57:06.573Z,11.95
2018-08-30T02:59:44.783Z,12.73
2018-08-30T03:02:13.227Z,12.28
2018-08-30T03:04:41.707Z,12.13
2018-08-30T03:07:10.143Z,12.33
2018-08-30T03:09:39.074Z,12.60
2018-08-30T03:12:07.589Z,12.13
2018-08-30T03:14:36.324Z,13.20
2018-08-30T03:17:05.578Z,12.53
2018-08-30T03:19:34.158Z,12.73
2018-08-30T03:22:02.866Z,12.93
2018-08-30T03:24:31.315Z,12.70
2018-08-30T03:26:59.772Z,12.73
2018-08-30T03:29:28.213Z,12.37
2018-08-30T03:31:56.763Z,12.20
2018-08-30T03:34:25.339Z,12.43
2018-08-30T03:36:53.761Z,11.70
2018-08-30T03:39:22.368Z,12.98
2018-08-30T03:41:50.818Z,12.80
2018-08-30T03:44:19.241Z,13.33
2018-08-30T03:46:47.828Z,13.27
2018-08-30T03:49:16.270Z,13.22
2018-08-30T03:51:44.769Z,13.40
2018-08-30T03:54:13.575Z,13.30
2018-08-30T03:56:41.966Z,13.33
2018-08-30T03:59:11.089Z,13.40
2018-08-30T04:01:40.278Z,14.37
2018-08-30T04:04:08.781Z,14.43
2018-08-30T04:06:37.230Z,14.47
2018-08-30T04:09:28.449Z,14.53
2018-08-30T04:11:56.887Z,14.90
2018-08-30T04:14:25.705Z,14.50
2018-08-30T04:16:54.140Z,15.18
2018-08-30T04:19:27.627Z,15.23
2018-08-30T04:21:56.218Z,14.98
2018-08-30T04:24:24.700Z,15.60
2018-08-30T04:26:53.127Z,15.40
2018-08-30T04:29:21.578Z,15.45
2018-08-30T04:31:50.044Z,15.72
2018-08-30T04:34:18.906Z,14.28
2018-08-30T04:36:47.371Z,14.18
2018-08-30T04:39:15.810Z,14.77
2018-08-30T04:41:44.279Z,15.03
2018-08-30T04:44:12.861Z,15.70
2018-08-30T04:46:41.235Z,15.58
2018-08-30T04:52:02.181Z,15.15
2018-08-30T04:54:31.074Z,15.25
2018-08-30T04:56:59.484Z,15.13
2018-08-30T05:02:21.156Z,15.90
2018-08-30T05:04:49.673Z,15.05
2018-08-30T05:07:18.162Z,14.30
2018-08-30T05:09:46.600Z,15.80
2018-08-30T05:12:15.020Z,15.70
2018-08-30T05:14:43.635Z,15.48
2018-08-30T05:17:12.167Z,15.30
2018-08-30T05:22:33.770Z,15.85
2018-08-30T05:25:02.371Z,17.15
2018-08-30T05:27:30.838Z,16.45
2018-08-30T05:32:52.514Z,16.27
2018-08-30T05:35:21.180Z,16.85
2018-08-30T05:37:49.789Z,16.15
2018-08-30T05:40:18.282Z,17.57
2018-08-30T05:42:46.708Z,18.48
2018-08-30T05:45:15.285Z,18.02
2018-08-30T05:47:43.892Z,16.37
2018-08-30T05:50:21.919Z,16.00
2018-08-30T05:52:50.719Z,16.87
2018-08-30T05:55:19.352Z,16.90
2018-08-30T05:57:47.822Z,15.63
2018-08-30T06:00:16.243Z,16.12
2018-08-30T06:02:44.748Z,16.52
2018-08-30T06:05:13.164Z,15.18
2018-08-30T06:07:41.861Z,15.53
2018-08-30T06:10:10.305Z,15.90
2018-08-30T06:12:38.951Z,15.75
2018-08-30T06:15:07.414Z,14.70
2018-08-30T06:17:35.916Z,15.30
2018-08-30T06:20:04.492Z,17.42
2018-08-30T06:22:32.910Z,16.70
2018-08-30T06:25:01.324Z,17.90
2018-08-30T06:27:30.443Z,18.15
2018-08-30T06:29:58.971Z,19.32
2018-08-30T06:32:27.466Z,19.50
2018-08-30T06:34:55.850Z,18.55
2018-08-30T06:37:24.417Z,20.15
2018-08-30T06:39:54.034Z,21.48
2018-08-30T06:42:22.468Z,18.90
2018-08-30T06:44:50.952Z,20.23
2018-08-30T06:47:19.426Z,20.12
2018-08-30T06:49:47.856Z,22.37
2018-08-30T06:52:16.228Z,20.57
2018-08-30T06:54:44.813Z,21.82
2018-08-30T06:57:24.372Z,20.52
2018-08-30T06:59:57.141Z,21.93
2018-08-30T07:02:25.656Z,21.10
2018-08-30T07:04:55.734Z,19.77
2018-08-30T07:07:25.364Z,20.23
2018-08-30T07:09:53.975Z,24.43
2018-08-30T07:12:22.698Z,23.30
2018-08-30T07:14:51.279Z,22.95
2018-08-30T07:17:22.862Z,24.65
2018-08-30T07:20:00.727Z,23.32
2018-08-30T07:22:30.571Z,24.30
2018-08-30T07:25:00.909Z,23.35
2018-08-30T07:27:34.602Z,24.63
2018-08-30T07:30:03.283Z,25.17
2018-08-30T07:32:31.714Z,26.23
2018-08-30T07:35:00.496Z,25.65
2018-08-30T07:37:28.885Z,26.15
2018-08-30T07:39:57.350Z,27.13
2018-08-30T07:42:25.837Z,25.97
2018-08-30T07:44:54.321Z,26.65
2018-08-30T07:47:23.152Z,26.70
2018-08-30T07:49:51.570Z,25.43
2018-08-30T07:52:20.012Z,26.70
2018-08-30T07:54:48.444Z,24.32
2018-08-30T07:57:16.938Z,24.65
2018-08-30T07:59:50.410Z,23.80
2018-08-30T08:02:19.022Z,22.35
2018-08-30T08:04:47.553Z,20.90
2018-08-30T08:07:16.254Z,21.42
2018-08-30T08:09:44.780Z,21.45
2018-08-30T08:12:13.364Z,21.17
2018-08-30T08:14:41.890Z,20.85
2018-08-30T08:17:10.526Z,20.60
2018-08-30T08:20:01.690Z,19.35
2018-08-30T08:22:30.293Z,18.70
2018-08-30T08:25:01.339Z,18.25
2018-08-30T08:27:29.848Z,18.77
2018-08-30T08:29:59.190Z,18.23
2018-08-30T08:32:27.776Z,16.70
2018-08-30T08:34:56.283Z,16.20
2018-08-30T08:37:26.803Z,17.48
2018-08-30T08:39:55.258Z,15.80
2018-08-30T08:42:24.986Z,17.00
2018-08-30T08:44:53.602Z,16.10
2018-08-30T08:47:22.120Z,15.00
2018-08-30T08:49:50.856Z,17.32
2018-08-30T08:52:19.419Z,17.25
2018-08-30T08:54:52.001Z,17.70
2018-08-30T08:57:20.471Z,16.67
2018-08-30T08:59:49.617Z,17.42
2018-08-30T09:02:18.174Z,18.45
2018-08-30T09:04:46.666Z,17.48
2018-08-30T09:07:15.255Z,17.67
2018-08-30T09:09:44.006Z,18.90
2018-08-30T09:12:12.453Z,19.50
2018-08-30T09:14:41.183Z,19.60
2018-08-30T09:17:09.764Z,19.37
2018-08-30T09:19:38.314Z,20.08
2018-08-30T09:22:19.220Z,19.77
2018-08-30T09:24:59.193Z,20.97
2018-08-30T09:27:27.640Z,20.08
2018-08-30T09:29:56.837Z,20.23
2018-08-30T09:32:25.995Z,20.80
2018-08-30T09:34:55.251Z,20.00
2018-08-30T09:37:24.232Z,21.85
2018-08-30T09:39:52.700Z,20.70
2018-08-30T09:42:21.167Z,19.25
2018-08-30T09:44:49.734Z,15.70
2018-08-30T09:47:18.098Z,16.23
2018-08-30T09:49:51.667Z,16.10
2018-08-30T09:52:24.688Z,14.60
2018-08-30T09:54:53.533Z,14.68
2018-08-30T09:57:22.319Z,13.45
2018-08-30T09:59:50.856Z,14.03
2018-08-30T10:02:25.686Z,15.28
2018-08-30T10:07:33.989Z,14.50
2018-08-30T10:10:12.226Z,14.10
2018-08-30T10:12:41.738Z,13.10
2018-08-30T10:15:12.430Z,13.30
2018-08-30T10:17:41.167Z,12.75
2018-08-30T10:20:09.956Z,12.60
2018-08-30T10:22:38.576Z,14.75
2018-08-30T10:25:07.563Z,14.87
2018-08-30T10:27:36.131Z,13.08
2018-08-30T10:30:05.095Z,12.93
2018-08-30T10:32:34.194Z,12.85
2018-08-30T10:35:02.704Z,13.05
2018-08-30T10:37:31.646Z,12.45
2018-08-30T10:40:00.590Z,11.85
2018-08-30T10:42:29.400Z,13.30
2018-08-30T10:44:58.153Z,11.63
2018-08-30T10:47:27.050Z,15.10
2018-08-30T10:49:56.005Z,12.25
2018-08-30T10:52:25.027Z,11.57
2018-08-30T10:54:53.547Z,11.70
2018-08-30T10:57:22.260Z,9.10
2018-08-30T11:00:00.445Z,8.13
2018-08-30T11:02:30.398Z,7.00
2018-08-30T11:05:00.295Z,6.58
2018-08-30T11:07:29.628Z,6.35
2018-08-30T11:09:59.201Z,7.17
2018-08-30T11:12:29.544Z,8.15
2018-08-30T11:14:59.819Z,5.42
2018-08-30T11:17:28.841Z,5.15
2018-08-30T11:19:57.904Z,4.28
2018-08-30T11:22:26.845Z,4.60
2018-08-30T11:24:55.287Z,3.87
2018-08-30T11:27:27.328Z,3.85
2018-08-30T11:29:56.042Z,4.05
2018-08-30T11:32:25.098Z,3.80
2018-08-30T11:34:54.888Z,3.90
2018-08-30T11:37:23.814Z,4.80
2018-08-30T11:39:57.884Z,4.80
2018-08-30T11:42:26.913Z,5.30
2018-08-30T11:44:55.651Z,4.35
2018-08-30T11:47:24.766Z,4.25
2018-08-30T11:49:54.302Z,5.08
2018-08-30T11:52:23.308Z,5.40
2018-08-30T11:54:52.460Z,6.28
2018-08-30T11:57:21.735Z,7.00
2018-08-30T12:00:00.111Z,8.05
2018-08-30T12:02:30.761Z,8.68
2018-08-30T12:04:59.924Z,8.45
2018-08-30T12:07:29.472Z,9.25
2018-08-30T12:09:59.066Z,7.55
2018-08-30T12:12:27.954Z,7.45
2018-08-30T12:14:56.658Z,7.65
2018-08-30T12:17:26.393Z,6.65
2018-08-30T12:19:55.510Z,7.40
2018-08-30T12:22:24.943Z,8.43
2018-08-30T12:24:53.454Z,6.58
2018-08-30T12:27:22.454Z,5.30
2018-08-30T12:29:56.536Z,5.12
2018-08-30T12:32:25.541Z,5.20
2018-08-30T12:34:54.397Z,4.95
2018-08-30T12:37:23.257Z,5.03
2018-08-30T12:39:52.339Z,5.40
2018-08-30T12:42:21.527Z,5.80
2018-08-30T12:44:50.368Z,5.30
2018-08-30T12:47:19.262Z,5.90
2018-08-30T12:49:57.439Z,5.85
2018-08-30T12:52:26.600Z,5.90
2018-08-30T12:54:56.083Z,6.35
2018-08-30T12:57:25.027Z,6.83
2018-08-30T12:59:54.339Z,7.03
2018-08-30T13:02:23.713Z,6.75
2018-08-30T13:04:52.760Z,8.00
2018-08-30T13:07:23.739Z,7.58
2018-08-30T13:09:57.626Z,8.40
2018-08-30T13:12:26.663Z,9.23
2018-08-30T13:14:56.704Z,9.08
2018-08-30T13:17:26.567Z,9.83
2018-08-30T13:19:55.576Z,8.95
2018-08-30T13:22:24.375Z,9.25
2018-08-30T13:24:54.208Z,9.95
2018-08-30T13:27:23.911Z,10.08
2018-08-30T13:30:06.495Z,11.30
2018-08-30T13:32:35.469Z,11.22
2018-08-30T13:35:04.704Z,11.60
2018-08-30T13:37:34.543Z,11.53
2018-08-30T13:40:05.509Z,11.43
2018-08-30T13:42:34.669Z,12.58
2018-08-30T13:45:04.494Z,11.97
2018-08-30T13:47:34.517Z,12.15
2018-08-30T13:50:04.292Z,12.88
2018-08-30T13:52:33.832Z,12.30
2018-08-30T13:55:03.115Z,12.63
2018-08-30T13:57:32.291Z,12.33
2018-08-30T14:00:03.262Z,12.28
2018-08-30T14:02:32.917Z,12.33
2018-08-30T14:05:01.788Z,12.20
2018-08-30T14:07:30.552Z,12.50
2018-08-30T14:09:59.468Z,12.50
2018-08-30T14:12:28.907Z,12.90
2018-08-30T14:14:57.805Z,13.55
2018-08-30T14:17:26.215Z,12.70
2018-08-30T14:19:57.456Z,12.40
2018-08-30T14:22:27.224Z,11.95
2018-08-30T14:24:56.293Z,13.15
2018-08-30T14:27:25.389Z,12.85
2018-08-30T14:30:00.954Z,13.45
2018-08-30T14:32:30.038Z,13.03
2018-08-30T14:34:59.183Z,12.28
2018-08-30T14:37:29.975Z,13.90
2018-08-30T14:39:59.145Z,12.40
2018-08-30T14:42:28.908Z,12.23
2018-08-30T14:44:58.108Z,14.70
2018-08-30T14:47:27.112Z,12.10
2018-08-30T14:49:56.421Z,15.32
2018-08-30T14:52:25.550Z,13.58
2018-08-30T14:54:54.764Z,11.55
2018-08-30T14:57:24.688Z,12.53
2018-08-30T14:59:54.643Z,11.90
2018-08-30T15:02:23.803Z,11.33
2018-08-30T15:04:52.671Z,12.10
2018-08-30T15:07:21.816Z,12.00
2018-08-30T15:09:51.159Z,12.00
2018-08-30T15:15:00.329Z,11.10
2018-08-30T15:17:29.603Z,11.43
2018-08-30T15:19:58.411Z,9.43
2018-08-30T15:22:26.900Z,8.95
2018-08-30T15:24:55.334Z,8.55
2018-08-30T15:27:23.742Z,7.53
2018-08-30T15:29:52.307Z,7.97
2018-08-30T15:32:20.859Z,8.28
2018-08-30T15:34:49.434Z,10.50
2018-08-30T15:37:17.842Z,8.10
2018-08-30T15:39:46.428Z,9.15
2018-08-30T15:42:15.083Z,7.80
2018-08-30T15:44:45.847Z,7.97
2018-08-30T15:47:14.408Z,8.43
2018-08-30T15:49:42.977Z,7.65
2018-08-30T15:52:11.616Z,8.50
2018-08-30T15:54:40.124Z,7.87
2018-08-30T15:57:09.582Z,7.15
2018-08-30T15:59:40.420Z,7.95
2018-08-30T16:04:54.372Z,8.43
2018-08-30T16:07:22.779Z,8.00
2018-08-30T16:09:51.393Z,7.45
2018-08-30T16:12:20.319Z,7.15
2018-08-30T16:14:48.838Z,7.53
2018-08-30T16:17:17.529Z,7.33
2018-08-30T16:19:45.976Z,7.75
2018-08-30T16:22:14.394Z,8.13
2018-08-30T16:24:42.921Z,7.55
2018-08-30T16:27:11.502Z,8.73
2018-08-30T16:29:40.017Z,8.68
2018-08-30T16:32:08.647Z,8.48
2018-08-30T16:34:37.220Z,9.00
2018-08-30T16:37:05.713Z,9.05
2018-08-30T16:39:34.294Z,9.50
2018-08-30T16:42:02.847Z,9.90
2018-08-30T16:44:31.490Z,10.40
2018-08-30T16:47:00.071Z,11.22
2018-08-30T16:49:28.449Z,9.85
2018-08-30T16:51:57.125Z,9.08
2018-08-30T16:54:25.550Z,14.45
2018-08-30T16:56:54.006Z,10.72
2018-08-30T16:59:22.612Z,10.58
2018-08-30T17:01:51.428Z,13.08
2018-08-30T17:04:19.942Z,11.73
2018-08-30T17:06:48.404Z,10.80
2018-08-30T17:09:16.866Z,10.45
2018-08-30T17:11:45.240Z,11.22
2018-08-30T17:14:13.665Z,10.48
2018-08-30T17:16:42.067Z,10.93
2018-08-30T17:19:20.950Z,11.68
2018-08-30T17:21:49.411Z,10.85
2018-08-30T17:24:17.802Z,10.55
2018-08-30T17:26:46.163Z,10.53
2018-08-30T17:29:14.919Z,11.28
2018-08-30T17:31:43.357Z,11.12
2018-08-30T17:34:11.899Z,11.90
2018-08-30T17:36:40.443Z,10.95
2018-08-30T17:39:09.883Z,9.23
2018-08-30T17:41:41.941Z,10.70
2018-08-30T17:44:11.127Z,10.45
2018-08-30T17:46:40.756Z,9.18
2018-08-30T17:49:09.962Z,9.68
2018-08-30T17:51:38.892Z,9.75
2018-08-30T17:54:07.764Z,9.70
2018-08-30T17:56:36.724Z,11.03
2018-08-30T17:59:05.648Z,11.20
2018-08-30T18:01:35.778Z,9.75
2018-08-30T18:04:04.508Z,10.55
2018-08-30T18:06:34.254Z,9.60
2018-08-30T18:09:03.357Z,10.40
2018-08-30T18:11:32.013Z,8.58
2018-08-30T18:14:00.693Z,9.23
2018-08-30T18:16:29.165Z,8.90
2018-08-30T18:18:57.644Z,9.08
2018-08-30T18:21:26.460Z,10.65
2018-08-30T18:23:55.143Z,9.45
2018-08-30T18:26:23.634Z,9.30
2018-08-30T18:28:52.023Z,9.90
2018-08-30T18:31:20.624Z,10.23
2018-08-30T18:33:49.121Z,9.55
2018-08-30T18:36:17.719Z,10.63
2018-08-30T18:38:46.206Z,10.00
2018-08-30T18:41:14.669Z,11.90
2018-08-30T18:43:43.164Z,11.38
2018-08-30T18:46:11.893Z,9.38
2018-08-30T18:48:40.409Z,8.95
2018-08-30T18:51:08.993Z,9.53
2018-08-30T18:53:37.423Z,9.45
2018-08-30T18:56:05.979Z,9.80
2018-08-30T18:58:34.467Z,8.80
2018-08-30T19:01:02.956Z,9.18
2018-08-30T19:03:31.959Z,8.45
2018-08-30T19:06:00.747Z,8.43
2018-08-30T19:08:29.560Z,7.95
2018-08-30T19:11:03.620Z,7.92
2018-08-30T19:13:32.347Z,7.90
2018-08-30T19:16:06.452Z,8.45
2018-08-30T19:18:40.297Z,8.88
2018-08-30T19:21:26.587Z,7.83
2018-08-30T19:23:55.419Z,7.70
2018-08-30T19:26:23.908Z,8.55
2018-08-30T19:28:52.491Z,9.88
2018-08-30T19:31:21.253Z,7.80
2018-08-30T19:33:49.917Z,7.45
2018-08-30T19:36:23.547Z,7.45
2018-08-30T19:38:52.365Z,7.12
2018-08-30T19:41:22.499Z,7.40
2018-08-30T19:43:52.029Z,8.23
2018-08-30T19:46:21.324Z,7.37
2018-08-30T19:48:50.063Z,6.72
2018-08-30T19:51:24.073Z,6.67
2018-08-30T19:53:53.489Z,7.12
2018-08-30T19:56:22.109Z,7.12
2018-08-30T19:58:50.678Z,6.75
2018-08-30T20:01:19.157Z,7.37
2018-08-30T20:03:47.849Z,9.45
2018-08-30T20:06:16.460Z,7.37
2018-08-30T20:08:45.666Z,7.53
2018-08-30T20:11:14.318Z,7.17
2018-08-30T20:13:42.809Z,7.55
2018-08-30T20:16:11.651Z,7.87
2018-08-30T20:18:40.233Z,11.10
2018-08-30T20:21:10.452Z,8.23
2018-08-30T20:23:39.140Z,8.18
2018-08-30T20:26:07.642Z,7.65
2018-08-30T20:28:36.336Z,7.80
2018-08-30T20:31:09.969Z,7.50
2018-08-30T20:33:38.707Z,7.90
2018-08-30T20:36:07.550Z,8.98
2018-08-30T20:38:36.120Z,7.78
2018-08-30T20:41:09.693Z,8.35
2018-08-30T20:43:38.223Z,8.30
2018-08-30T20:46:07.128Z,8.93
2018-08-30T20:48:36.180Z,7.80
2018-08-30T20:51:04.765Z,8.30
2018-08-30T20:53:33.435Z,8.13
2018-08-30T20:56:02.149Z,7.65
2018-08-30T20:58:30.591Z,7.72
2018-08-30T21:00:59.182Z,7.28
2018-08-30T21:03:27.749Z,7.70
2018-08-30T21:05:56.278Z,7.53
2018-08-30T21:08:24.821Z,6.83
2018-08-30T21:10:53.435Z,7.75
2018-08-30T21:13:21.897Z,7.12
2018-08-30T21:15:50.497Z,6.75
2018-08-30T21:18:18.961Z,6.15
2018-08-30T21:20:47.527Z,6.25
2018-08-30T21:23:16.539Z,6.97
2018-08-30T21:25:45.620Z,5.85
2018-08-30T21:28:14.340Z,6.97
2018-08-30T21:30:43.013Z,6.80
2018-08-30T21:33:12.003Z,6.30
2018-08-30T21:35:41.225Z,6.33
2018-08-30T21:38:09.885Z,5.92
2018-08-30T21:40:38.491Z,6.33
2018-08-30T21:43:08.193Z,5.42
2018-08-30T21:45:37.653Z,6.03
2018-08-30T21:48:06.112Z,5.65
2018-08-30T21:50:48.337Z,5.78
2018-08-30T21:53:17.434Z,6.13
2018-08-30T21:55:46.950Z,6.08
2018-08-30T21:58:16.205Z,6.10
2018-08-30T22:00:45.355Z,5.80
2018-08-30T22:03:20.068Z,6.05
2018-08-30T22:05:54.269Z,5.83
2018-08-30T22:08:23.232Z,5.45
2018-08-30T22:10:52.533Z,6.33
2018-08-30T22:13:22.857Z,6.03
2018-08-30T22:15:52.092Z,5.95
2018-08-30T22:18:21.786Z,5.90
2018-08-30T22:20:51.462Z,6.33
2018-08-30T22:23:20.919Z,6.33
2018-08-30T22:25:50.006Z,5.62
2018-08-30T22:28:18.763Z,5.58
2018-08-30T22:30:48.198Z,5.78
2018-08-30T22:33:18.181Z,6.42
2018-08-30T22:35:47.103Z,5.50
2018-08-30T22:38:15.888Z,5.97
2018-08-30T22:40:45.309Z,6.22
2018-08-30T22:43:14.168Z,5.42
2018-08-30T22:45:42.672Z,5.80
2018-08-30T22:48:11.546Z,5.72
2018-08-30T22:50:40.701Z,5.87
2018-08-30T22:53:10.356Z,5.58
2018-08-30T22:55:39.720Z,5.50
2018-08-30T22:58:08.609Z,5.60
2018-08-30T23:00:37.120Z,6.23
2018-08-30T23:03:05.668Z,5.07
2018-08-30T23:05:34.148Z,5.65
2018-08-30T23:08:02.626Z,5.30
2018-08-30T23:10:31.255Z,5.37
2018-08-30T23:12:59.734Z,5.63
2018-08-30T23:15:28.212Z,5.80
2018-08-30T23:17:56.621Z,5.07
2018-08-30T23:20:25.100Z,6.28
2018-08-30T23:22:53.629Z,5.10
2018-08-30T23:25:22.195Z,5.40
2018-08-30T23:27:50.566Z,5.50
2018-08-30T23:30:19.060Z,5.30
2018-08-30T23:32:47.524Z,5.55
2018-08-30T23:35:15.962Z,5.40
2018-08-30T23:37:45.128Z,5.55
2018-08-30T23:40:13.605Z,5.00
2018-08-30T23:42:42.937Z,5.45
2018-08-30T23:45:11.400Z,5.42
2018-08-30T23:47:39.839Z,5.00
2018-08-30T23:50:08.314Z,5.45
2018-08-30T23:52:36.935Z,5.90
2018-08-30T23:55:05.544Z,5.30
2018-08-30T23:57:34.029Z,5.10
